Santa Rosa Beach, Florida
Current Conditions -  °F | °C
As of 9:21 AM on Monday 24 Nov 2014 (Local Time) from KVPS Reporting Station
Scattered Clouds Scattered Clouds  
Wind Chill: 75°   Ceiling: Unl
Heat Index: 75°   Visibility: 7mi
Dew Point: 66°   Wind: 13mph
Humidity: 73%   Direction: 280°W
Pressure: 29.86"   Gusts: NA
Location:  30.4°N, 86.23°W
Report Text: KVPS 241521Z 28011KT 7SM FEW009 SCT090 24/19 A2986 RMK AO2A $
Loading
Personal Weather Stations






























Interactive Weather Map New forecast layout! Learn more

10-Day Weather Forecast

Advertisements
Track Severe Weather on mobile